Time;durP1;ratioP1;P1;durP2;ratioP2;P2;SDS_P1;SDS_P2;PMS_P1;PMS_P2;Temp;Humidity;BMP_temperature;BMP_pressure;BME280_temperature;BME280_humidity;BME280_pressure;Samples;Min_cycle;Max_cycle;Signal;HPM_P1;HPM_P2
2022/12/20 00:01:49;;;;;;;;;40.00;35.25;25.50;41.60;;;;;;110308;1260;49697;-62
2022/12/20 00:04:16;;;;;;;;;39.75;33.75;25.50;41.60;;;;;;110038;1260;49184;-64
2022/12/20 00:06:43;;;;;;;;;40.33;31.67;25.40;41.50;;;;;;110073;1259;45438;-62
2022/12/20 00:09:10;;;;;;;;;40.67;34.00;25.40;41.60;;;;;;110430;1259;55900;-62
2022/12/20 00:11:39;;;;;;;;;34.75;31.00;25.40;41.60;;;;;;110476;1260;56909;-62
2022/12/20 00:14:08;;;;;;;;;38.75;32.25;25.40;41.60;;;;;;110120;1261;49306;-62
2022/12/20 00:16:36;;;;;;;;;36.00;30.00;25.40;41.60;;;;;;110145;1263;49280;-62
2022/12/20 00:19:05;;;;;;;;;38.33;32.33;25.40;41.60;;;;;;110490;1260;45177;-62
2022/12/20 00:21:33;;;;;;;;;40.00;33.00;25.40;41.50;;;;;;110435;1260;55893;-62
2022/12/20 00:24:00;;;;;;;;;33.00;29.67;25.40;41.70;;;;;;110060;1259;55821;-62
2022/12/20 00:26:29;;;;;;;;;33.33;30.33;25.50;41.10;;;;;;110082;1259;49021;-62
2022/12/20 00:28:57;;;;;;;;;35.00;31.00;25.50;41.40;;;;;;110100;1260;49370;-61
2022/12/20 00:31:25;;;;;;;;;28.00;26.50;25.50;41.40;;;;;;110181;1252;45326;-62
2022/12/20 00:33:54;;;;;;;;;33.25;29.00;25.50;41.30;;;;;;110231;1260;56023;-62
2022/12/20 00:36:22;;;;;;;;;37.75;32.00;25.50;41.30;;;;;;110584;1260;55965;-61
2022/12/20 00:38:52;;;;;;;;;37.00;30.50;25.60;41.20;;;;;;110568;1260;49177;-62
2022/12/20 00:41:24;;;;;;;;;36.00;31.00;25.60;41.20;;;;;;110534;1259;49889;-62
2022/12/20 00:43:51;;;;;;;;;40.67;31.67;25.60;41.10;;;;;;110517;1259;44738;-61
2022/12/20 00:46:19;;;;;;;;;36.00;30.67;25.60;41.10;;;;;;110554;1260;56063;-61
2022/12/20 00:48:46;;;;;;;;;36.25;31.25;25.60;41.10;;;;;;110568;1260;55239;-61
2022/12/20 00:51:16;;;;;;;;;30.67;29.33;25.60;41.10;;;;;;110559;1257;49251;-62
2022/12/20 00:53:43;;;;;;;;;35.67;29.33;25.70;41.10;;;;;;110507;1259;49458;-62
2022/12/20 00:56:11;;;;;;;;;43.33;34.00;25.60;41.10;;;;;;110558;1257;45053;-62
2022/12/20 00:58:40;;;;;;;;;35.00;31.50;25.60;41.10;;;;;;110512;1254;55218;-62
2022/12/20 01:01:18;;;;;;;;;34.33;31.67;25.60;41.10;;;;;;110615;1260;55862;-62
2022/12/20 01:03:45;;;;;;;;;36.67;29.33;25.60;41.10;;;;;;110491;1257;49941;-62
2022/12/20 01:06:12;;;;;;;;;37.50;32.00;25.60;41.20;;;;;;110529;1257;49153;-61
2022/12/20 01:08:39;;;;;;;;;39.00;31.00;25.60;41.10;;;;;;110090;1260;45413;-61
2022/12/20 01:11:35;;;;;;;;;39.50;33.50;25.60;41.10;;;;;;110265;1259;56559;-61
2022/12/20 01:14:06;;;;;;;;;33.25;30.50;25.60;41.20;;;;;;109952;1262;55990;-62
2022/12/20 01:16:38;;;;;;;;;31.00;29.00;25.60;41.10;;;;;;110105;1260;50418;-62
2022/12/20 01:19:07;;;;;;;;;36.50;30.50;25.60;41.10;;;;;;110077;1260;48739;-61
2022/12/20 01:21:34;;;;;;;;;28.00;27.00;25.60;41.10;;;;;;110041;1260;44513;-63
2022/12/20 01:24:01;;;;;;;;;36.33;31.00;25.60;41.10;;;;;;110090;1257;55849;-62
2022/12/20 01:26:28;;;;;;;;;32.75;29.50;25.60;41.10;;;;;;110080;1256;56247;-63
2022/12/20 01:28:58;;;;;;;;;37.75;30.50;25.50;41.10;;;;;;110157;1260;49121;-63
2022/12/20 01:31:29;;;;;;;;;30.67;27.00;25.50;41.10;;;;;;110166;1259;49523;-63
2022/12/20 01:33:56;;;;;;;;;26.50;25.50;25.50;41.50;;;;;;110158;1259;45243;-62
2022/12/20 01:36:26;;;;;;;;;35.00;29.50;25.50;41.00;;;;;;110047;1263;56139;-63
2022/12/20 01:38:57;;;;;;;;;37.50;29.50;25.50;41.00;;;;;;110066;1259;55539;-62
2022/12/20 01:41:25;;;;;;;;;29.00;28.00;25.50;41.10;;;;;;110071;1260;49609;-62
2022/12/20 01:43:51;;;;;;;;;36.00;32.00;25.50;41.10;;;;;;110075;1260;50298;-60
2022/12/20 01:46:20;;;;;;;;;36.50;31.50;25.50;41.10;;;;;;110086;1259;45212;-62
2022/12/20 01:49:17;;;;;;;;;27.00;26.00;25.40;41.00;;;;;;110009;1264;55545;-60
2022/12/20 01:51:48;;;;;;;;;36.25;30.50;25.50;41.10;;;;;;109995;1260;57113;-61
2022/12/20 01:54:20;;;;;;;;;37.00;33.00;25.50;41.00;;;;;;109996;1262;49822;-62
2022/12/20 01:56:53;;;;;;;;;34.00;30.50;25.50;41.00;;;;;;110077;1257;49618;-62
2022/12/20 01:59:20;;;;;;;;;33.00;29.00;25.50;41.00;;;;;;110120;1250;46050;-62
2022/12/20 02:01:48;;;;;;;;;34.00;30.00;25.40;40.90;;;;;;110040;1259;55262;-62
2022/12/20 02:04:14;;;;;;;;;31.25;29.25;25.40;40.90;;;;;;110036;1256;55325;-61
2022/12/20 02:06:41;;;;;;;;;30.33;28.00;25.40;40.90;;;;;;110172;1260;50082;-62
2022/12/20 02:09:08;;;;;;;;;29.67;28.33;25.40;41.00;;;;;;110369;1259;49139;-62
2022/12/20 02:11:56;;;;;;;;;27.50;24.50;25.40;41.00;;;;;;110565;1250;45694;-62
2022/12/20 02:14:50;;;;;;;;;30.00;29.00;25.40;41.10;;;;;;110029;1259;56016;-60
2022/12/20 02:17:29;;;;;;;;;32.00;29.00;25.30;41.00;;;;;;110003;1259;56672;-62
2022/12/20 02:19:55;;;;;;;;;28.00;24.00;25.40;40.90;;;;;;110007;1259;49684;-61
2022/12/20 02:22:33;;;;;;;;;31.33;27.00;25.40;40.90;;;;;;110092;1256;49389;-63
2022/12/20 02:25:21;;;;;;;;;27.00;26.00;25.40;40.90;;;;;;110095;1259;44616;-64
2022/12/20 02:28:10;;;;;;;;;33.50;29.00;25.40;40.80;;;;;;110079;1257;55484;-62
2022/12/20 02:30:41;;;;;;;;;36.75;29.75;25.40;40.80;;;;;;110156;1260;55617;-63
2022/12/20 02:33:11;;;;;;;;;27.75;25.50;25.50;40.70;;;;;;110514;1259;49695;-65
2022/12/20 02:35:39;;;;;;;;;32.67;28.67;25.50;40.70;;;;;;110170;1260;48925;-63
2022/12/20 02:38:28;;;;;;;;;28.33;26.67;25.50;40.50;;;;;;110142;1259;45402;-62
2022/12/20 02:41:20;;;;;;;;;31.33;29.00;25.50;40.40;;;;;;110078;1259;55394;-63
2022/12/20 02:46:37;;;;;;;;;37.00;29.00;25.50;40.30;;;;;;110098;1256;49280;-62
2022/12/20 02:49:10;;;;;;;;;31.50;29.00;25.60;40.30;;;;;;110550;1259;50318;-62
2022/12/20 02:51:37;;;;;;;;;34.00;30.00;25.60;40.30;;;;;;110549;1253;44690;-62
2022/12/20 02:54:04;;;;;;;;;26.50;22.50;25.50;40.30;;;;;;110063;1260;55607;-62
2022/12/20 02:56:35;;;;;;;;;29.50;28.50;25.50;40.30;;;;;;110109;1259;55320;-62
2022/12/20 02:59:10;;;;;;;;;26.33;23.33;25.50;40.50;;;;;;110088;1259;49210;-62
2022/12/20 03:01:41;;;;;;;;;27.00;24.67;25.50;40.30;;;;;;110282;1259;49918;-62
2022/12/20 03:04:08;;;;;;;;;29.33;27.00;25.50;40.30;;;;;;110295;1260;44831;-61
2022/12/20 03:06:35;;;;;;;;;27.00;24.00;25.50;40.30;;;;;;110175;1256;55553;-62
2022/12/20 03:09:02;;;;;;;;;26.50;24.00;25.50;40.30;;;;;;110133;1256;56043;-62
2022/12/20 03:11:29;;;;;;;;;31.00;27.00;25.50;40.30;;;;;;110064;1260;49728;-60
2022/12/20 03:13:56;;;;;;;;;32.25;26.75;25.50;40.30;;;;;;110057;1259;49405;-62
2022/12/20 03:16:23;;;;;;;;;32.00;29.00;25.50;40.20;;;;;;110097;1259;46023;-61
2022/12/20 03:18:50;;;;;;;;;28.00;25.67;25.50;40.20;;;;;;110076;1259;56642;-61
2022/12/20 03:21:16;;;;;;;;;33.33;29.00;25.50;40.20;;;;;;110136;1259;56795;-62
2022/12/20 03:23:43;;;;;;;;;30.00;27.00;25.50;40.20;;;;;;110060;1259;49196;-62
2022/12/20 03:26:10;;;;;;;;;29.67;29.00;25.50;40.10;;;;;;109995;1261;50130;-62
2022/12/20 03:28:37;;;;;;;;;30.67;27.33;25.40;40.10;;;;;;110095;1260;45338;-61
2022/12/20 03:31:04;;;;;;;;;40.33;31.00;25.40;40.00;;;;;;110051;1259;55986;-62
2022/12/20 03:33:31;;;;;;;;;29.33;28.33;25.40;40.00;;;;;;110081;1259;55387;-61
2022/12/20 03:35:58;;;;;;;;;28.00;26.33;25.40;40.00;;;;;;110050;1260;50305;-61
2022/12/20 03:38:25;;;;;;;;;33.00;29.50;25.30;39.80;;;;;;110079;1259;49593;-61
2022/12/20 03:40:52;;;;;;;;;27.67;26.67;25.40;39.50;;;;;;110075;1259;45578;-62
2022/12/20 03:43:18;;;;;;;;;39.00;33.00;25.40;39.20;;;;;;110106;1257;55374;-61
2022/12/20 03:45:45;;;;;;;;;34.00;30.00;25.30;38.10;;;;;;110080;1259;55673;-62
2022/12/20 03:48:12;;;;;;;;;41.50;32.50;25.30;38.10;;;;;;110078;1256;50063;-60
2022/12/20 03:50:40;;;;;;;;;32.50;29.00;25.30;38.30;;;;;;110029;1256;49531;-61
2022/12/20 03:53:07;;;;;;;;;31.00;29.00;25.30;38.40;;;;;;110132;1257;44360;-62
2022/12/20 03:55:34;;;;;;;;;32.00;29.00;25.30;38.30;;;;;;110089;1258;55475;-62
2022/12/20 03:58:01;;;;;;;;;33.67;30.00;25.20;38.20;;;;;;110434;1260;55955;-61
2022/12/20 04:00:28;;;;;;;;;31.67;28.67;25.20;38.20;;;;;;110457;1254;50248;-61
2022/12/20 04:02:55;;;;;;;;;32.00;30.00;25.20;38.20;;;;;;110081;1256;50165;-61
2022/12/20 04:05:21;;;;;;;;;33.00;28.00;25.20;38.30;;;;;;110052;1256;45094;-62
2022/12/20 04:07:48;;;;;;;;;32.67;30.00;25.10;38.40;;;;;;110061;1259;56661;-61
2022/12/20 04:10:15;;;;;;;;;33.00;30.00;25.10;38.60;;;;;;110044;1260;56860;-62
2022/12/20 04:12:42;;;;;;;;;35.00;30.25;25.10;38.80;;;;;;110054;1259;49669;-62
2022/12/20 04:15:09;;;;;;;;;34.33;30.67;25.10;39.00;;;;;;110042;1257;49763;-62
2022/12/20 04:17:36;;;;;;;;;32.50;30.00;25.10;39.10;;;;;;110270;1263;45240;-62
2022/12/20 04:20:17;;;;;;;;;33.00;29.75;25.20;39.20;;;;;;110500;1259;56273;-62
2022/12/20 04:22:46;;;;;;;;;29.00;26.00;25.10;39.20;;;;;;110481;1259;56029;-61
2022/12/20 04:25:14;;;;;;;;;31.50;27.75;25.20;39.30;;;;;;110070;1259;49671;-64
2022/12/20 04:27:42;;;;;;;;;34.00;29.00;25.20;39.30;;;;;;109975;1264;48823;-62
2022/12/20 04:30:10;;;;;;;;;28.00;27.00;25.20;39.30;;;;;;110093;1260;44787;-63
2022/12/20 04:32:37;;;;;;;;;25.50;22.00;25.30;39.50;;;;;;110097;1260;55756;-64
2022/12/20 04:35:05;;;;;;;;;23.50;23.00;25.30;39.50;;;;;;110080;1259;56349;-63
2022/12/20 04:37:32;;;;;;;;;29.25;26.50;25.30;39.50;;;;;;110081;1257;50303;-63
2022/12/20 04:39:59;;;;;;;;;29.00;28.00;25.40;39.70;;;;;;110133;1259;49485;-63
2022/12/20 04:42:26;;;;;;;;;31.50;28.00;25.40;39.60;;;;;;110163;1259;45327;-64
2022/12/20 04:44:53;;;;;;;;;27.33;23.67;25.40;39.60;;;;;;110172;1256;57153;-62
2022/12/20 04:47:20;;;;;;;;;26.00;25.00;25.40;39.70;;;;;;110193;1260;56356;-62
2022/12/20 04:49:47;;;;;;;;;30.50;25.25;25.40;40.50;;;;;;110054;1263;49470;-63
2022/12/20 04:54:59;;;;;;;;;30.00;25.00;25.50;40.20;;;;;;110330;1260;45546;-63
2022/12/20 04:57:25;;;;;;;;;26.00;25.00;25.40;40.30;;;;;;110255;1256;55603;-61
2022/12/20 04:59:53;;;;;;;;;24.00;23.00;25.50;40.40;;;;;;110276;1259;55839;-61
2022/12/20 05:02:20;;;;;;;;;27.67;24.67;25.50;40.60;;;;;;110180;1260;48928;-62
2022/12/20 05:04:47;;;;;;;;;24.00;20.00;25.50;40.70;;;;;;110058;1260;49775;-62
2022/12/20 05:07:13;;;;;;;;;30.50;26.00;25.50;40.80;;;;;;110095;1259;45186;-61
2022/12/20 05:09:40;;;;;;;;;27.00;26.00;25.40;40.70;;;;;;110104;1259;55879;-62
2022/12/20 05:12:07;;;;;;;;;25.75;19.75;25.40;40.40;;;;;;110075;1259;56456;-65
2022/12/20 05:14:34;;;;;;;;;31.50;30.00;25.40;40.20;;;;;;110110;1254;49710;-66
2022/12/20 05:17:01;;;;;;;;;34.00;29.00;25.50;39.40;;;;;;110018;1259;49714;-58
2022/12/20 05:19:28;;;;;;;;;36.75;29.00;25.50;38.70;;;;;;109993;1260;44783;-58
2022/12/20 05:27:25;;;;;;;;;39.00;32.00;25.50;38.60;;;;;;110083;1259;50342;-57
2022/12/20 05:29:52;;;;;;;;;37.00;32.00;25.40;38.60;;;;;;110157;1259;49680;-57
2022/12/20 05:32:19;;;;;;;;;47.75;33.50;25.40;38.50;;;;;;110217;1259;45812;-56
2022/12/20 05:34:46;;;;;;;;;47.67;35.67;25.40;38.60;;;;;;110153;1262;55270;-68
2022/12/20 05:37:13;;;;;;;;;36.50;31.50;25.40;38.60;;;;;;110011;1261;57334;-69
2022/12/20 05:39:40;;;;;;;;;44.50;34.00;25.40;38.80;;;;;;110057;1261;49881;-63
2022/12/20 05:42:07;;;;;;;;;45.00;34.50;25.50;51.60;;;;;;110121;1258;48723;-69
2022/12/20 05:44:33;;;;;;;;;45.33;36.67;25.50;39.70;;;;;;110173;1259;46000;-62
2022/12/20 05:47:00;;;;;;;;;46.75;34.75;25.60;39.10;;;;;;110149;1261;56045;-62
2022/12/20 05:49:27;;;;;;;;;42.33;31.33;25.60;39.00;;;;;;110109;1259;56196;-60
2022/12/20 05:51:54;;;;;;;;;43.00;33.50;25.60;38.90;;;;;;110042;1260;50740;-77
2022/12/20 05:54:21;;;;;;;;;51.00;34.00;25.60;38.80;;;;;;110132;1260;48581;-69
2022/12/20 05:56:48;;;;;;;;;50.00;36.00;25.60;38.90;;;;;;110166;1257;44785;-61
2022/12/20 05:59:16;;;;;;;;;46.00;37.00;25.60;38.70;;;;;;110317;1260;56032;-62
2022/12/20 06:01:43;;;;;;;;;54.75;37.50;25.60;38.60;;;;;;110308;1260;56005;-61
2022/12/20 06:04:10;;;;;;;;;50.75;38.00;25.60;38.80;;;;;;110039;1260;48971;-58
2022/12/20 06:06:37;;;;;;;;;44.67;35.00;25.60;39.00;;;;;;110079;1259;48797;-58
2022/12/20 06:09:04;;;;;;;;;45.00;37.00;25.60;38.90;;;;;;110147;1256;44859;-58
2022/12/20 06:11:31;;;;;;;;;48.50;37.00;25.60;38.90;;;;;;110159;1259;55713;-70
2022/12/20 06:13:58;;;;;;;;;50.00;39.33;25.60;38.80;;;;;;110121;1260;56147;-66
2022/12/20 06:16:25;;;;;;;;;49.00;35.50;25.70;38.90;;;;;;110104;1260;50657;-60
2022/12/20 06:18:53;;;;;;;;;47.00;35.33;25.70;38.80;;;;;;109495;1259;794636;-63
2022/12/20 06:21:20;;;;;;;;;47.33;38.00;25.70;38.80;;;;;;110081;1260;44775;-64
2022/12/20 06:23:47;;;;;;;;;48.00;35.00;25.70;38.90;;;;;;110097;1257;57359;-65
2022/12/20 06:26:14;;;;;;;;;46.67;36.00;25.70;38.90;;;;;;110095;1260;56100;-64
2022/12/20 06:28:44;;;;;;;;;51.33;39.00;25.70;38.90;;;;;;110112;1259;48802;-57
2022/12/20 06:31:11;;;;;;;;;47.00;36.00;25.70;38.70;;;;;;110039;1256;48885;-59
2022/12/20 06:33:38;;;;;;;;;46.25;36.00;25.70;39.20;;;;;;110124;1260;45305;-67
2022/12/20 06:36:06;;;;;;;;;48.50;36.00;25.70;39.20;;;;;;110337;1257;56842;-69
2022/12/20 06:38:33;;;;;;;;;46.75;36.25;25.70;38.70;;;;;;110353;1263;56569;-55
2022/12/20 06:41:00;;;;;;;;;44.33;35.33;25.70;38.70;;;;;;110212;1259;49655;-56
2022/12/20 06:43:27;;;;;;;;;46.00;35.00;25.70;38.70;;;;;;110075;1261;50297;-63
2022/12/20 06:45:54;;;;;;;;;42.50;34.00;25.70;38.60;;;;;;110001;1256;45711;-60
2022/12/20 06:48:24;;;;;;;;;43.00;36.00;25.70;38.60;;;;;;110100;1260;56448;-71
2022/12/20 06:50:51;;;;;;;;;48.00;37.00;25.70;38.70;;;;;;109706;1259;55301;-68
2022/12/20 06:53:19;;;;;;;;;46.67;37.67;25.70;38.60;;;;;;110033;1259;49615;-61
2022/12/20 06:55:49;;;;;;;;;44.00;36.50;25.70;38.90;;;;;;110060;1259;49269;-68
2022/12/20 06:58:19;;;;;;;;;46.00;35.33;25.70;38.70;;;;;;110066;1259;45339;-62
2022/12/20 07:00:46;;;;;;;;;45.33;36.67;25.70;38.70;;;;;;110074;1259;55798;-63
2022/12/20 07:03:13;;;;;;;;;47.50;34.50;25.70;38.90;;;;;;110049;1258;56712;-63
2022/12/20 07:05:41;;;;;;;;;44.33;37.00;25.70;38.70;;;;;;110038;1259;49194;-57
2022/12/20 07:08:08;;;;;;;;;50.00;39.50;25.70;38.60;;;;;;109675;1259;48937;-57
2022/12/20 07:10:36;;;;;;;;;49.33;37.33;25.60;38.50;;;;;;110080;1260;44903;-57
2022/12/20 07:13:04;;;;;;;;;47.00;36.00;25.60;38.40;;;;;;110101;1256;55510;-59
2022/12/20 07:15:31;;;;;;;;;48.25;40.00;25.60;38.10;;;;;;109677;1262;56375;-57
2022/12/20 07:17:58;;;;;;;;;48.50;39.00;25.60;38.10;;;;;;110128;1260;49281;-55
2022/12/20 07:20:26;;;;;;;;;45.75;36.00;25.70;38.10;;;;;;110078;1260;48916;-56
2022/12/20 07:22:53;;;;;;;;;42.50;33.50;25.70;38.10;;;;;;110256;1257;45165;-57
2022/12/20 07:25:20;;;;;;;;;45.67;36.00;25.70;38.20;;;;;;110103;1259;55828;-57
2022/12/20 07:27:50;;;;;;;;;47.00;37.00;25.70;38.10;;;;;;110084;1259;55842;-57
2022/12/20 07:30:18;;;;;;;;;44.00;33.67;25.70;38.10;;;;;;110039;1259;49750;-57
2022/12/20 07:32:45;;;;;;;;;46.00;37.00;25.80;38.20;;;;;;110055;1260;49523;-57
2022/12/20 07:35:13;;;;;;;;;45.50;35.75;25.80;38.20;;;;;;110045;1259;44566;-57
2022/12/20 07:37:40;;;;;;;;;49.50;37.50;25.80;38.10;;;;;;110058;1258;56751;-57
2022/12/20 07:40:09;;;;;;;;;47.00;34.67;25.80;38.00;;;;;;110057;1256;55567;-57
2022/12/20 07:42:36;;;;;;;;;50.00;39.33;25.80;37.90;;;;;;110037;1259;49104;-67
2022/12/20 07:45:04;;;;;;;;;50.00;40.00;25.90;37.70;;;;;;110143;1258;49450;-64
2022/12/20 07:47:31;;;;;;;;;48.00;39.00;25.90;37.50;;;;;;110084;1259;44754;-68
2022/12/20 07:49:58;;;;;;;;;49.75;36.75;25.90;37.60;;;;;;110078;1259;55273;-57
2022/12/20 07:52:27;;;;;;;;;53.50;42.50;25.90;37.70;;;;;;110038;1262;57024;-69
2022/12/20 07:54:58;;;;;;;;;48.50;39.00;25.90;37.60;;;;;;110016;1261;49848;-67
2022/12/20 07:57:30;;;;;;;;;49.00;39.00;25.90;37.40;;;;;;109926;1261;48709;-69
2022/12/20 08:00:00;;;;;;;;;53.00;42.00;25.90;37.40;;;;;;110051;1259;44786;-71
2022/12/20 08:02:36;;;;;;;;;51.00;40.00;25.90;37.40;;;;;;109719;1262;56902;-70
2022/12/20 08:05:05;;;;;;;;;47.67;38.67;26.00;37.20;;;;;;110048;1259;55557;-70
2022/12/20 08:07:33;;;;;;;;;50.33;41.00;26.00;37.30;;;;;;110048;1261;49152;-71
2022/12/20 08:10:00;;;;;;;;;49.50;39.75;26.00;37.30;;;;;;109912;1259;48855;-64
2022/12/20 08:12:28;;;;;;;;;48.33;39.00;26.00;37.30;;;;;;110035;1259;45389;-62
2022/12/20 08:14:56;;;;;;;;;48.00;38.50;26.00;37.30;;;;;;110061;1259;55872;-65
2022/12/20 08:17:23;;;;;;;;;52.00;42.00;26.00;37.20;;;;;;110068;1263;55500;-61
2022/12/20 08:19:50;;;;;;;;;49.50;40.50;25.90;37.10;;;;;;110252;1259;48992;-60
2022/12/20 08:22:18;;;;;;;;;52.33;41.67;25.90;37.10;;;;;;110236;1259;50385;-79
2022/12/20 08:24:45;;;;;;;;;55.00;41.00;26.00;37.40;;;;;;110262;1261;45287;-63
2022/12/20 08:27:12;;;;;;;;;47.67;38.00;26.00;37.50;;;;;;110121;1259;55903;-65
2022/12/20 08:29:39;;;;;;;;;48.50;40.00;26.00;37.10;;;;;;110116;1259;55751;-63
2022/12/20 08:32:06;;;;;;;;;51.00;42.00;26.00;37.10;;;;;;110138;1256;49757;-62
2022/12/20 08:34:33;;;;;;;;;53.00;41.50;26.00;37.00;;;;;;110045;1260;49450;-68
2022/12/20 08:38:41;;;;;;;;;89.00;79.00;25.90;30.50;;;;;;107336;1298;35691;-75
2022/12/20 08:41:11;;;;;;;;;79.00;70.00;22.40;23.80;;;;;;109403;1276;46104;-74
2022/12/20 08:43:39;;;;;;;;;95.00;88.33;19.60;23.90;;;;;;109141;1273;56145;-71
2022/12/20 08:46:07;;;;;;;;;97.50;86.50;16.70;24.90;;;;;;109120;1273;55991;-72
2022/12/20 08:48:34;;;;;;;;;104.00;91.00;14.10;26.20;;;;;;109345;1266;49399;-72
2022/12/20 08:51:03;;;;;;;;;101.67;89.33;11.90;27.70;;;;;;109249;1272;50668;-72
2022/12/20 08:53:31;;;;;;;;;110.00;99.00;10.20;29.40;;;;;;108738;1269;45467;-72
2022/12/20 08:56:07;;;;;;;;;122.00;99.00;7.90;32.30;;;;;;109350;1265;55151;-72
2022/12/20 08:58:35;;;;;;;;;116.50;94.00;6.80;34.40;;;;;;109501;1266;56300;-69
2022/12/20 09:01:04;;;;;;;;;125.75;113.75;5.80;35.50;;;;;;109524;1262;50930;-71
2022/12/20 09:03:32;;;;;;;;;149.00;125.50;5.20;36.90;;;;;;109472;1268;49504;-73
2022/12/20 09:05:59;;;;;;;;;142.00;122.00;4.60;38.60;;;;;;109474;1269;45993;-74
2022/12/20 09:08:26;;;;;;;;;143.00;116.00;3.70;40.50;;;;;;109404;1265;55321;-77
2022/12/20 09:10:53;;;;;;;;;122.67;113.67;3.30;41.70;;;;;;109101;1268;55475;-74
2022/12/20 09:13:20;;;;;;;;;132.25;108.75;2.80;42.60;;;;;;109309;1266;49982;-76
2022/12/20 09:15:47;;;;;;;;;115.00;101.00;2.40;43.90;;;;;;109341;1269;50001;-74
2022/12/20 09:18:14;;;;;;;;;113.33;99.33;2.10;44.70;;;;;;108946;1273;46015;-75
2022/12/20 09:20:44;;;;;;;;;123.00;97.25;1.60;46.00;;;;;;109130;1268;55331;-75
2022/12/20 09:23:11;;;;;;;;;109.00;90.00;1.20;46.90;;;;;;109131;1270;56383;-75
2022/12/20 09:25:38;;;;;;;;;109.50;89.50;1.00;46.80;;;;;;109147;1268;50063;-75
2022/12/20 09:28:05;;;;;;;;;127.00;104.50;1.10;46.80;;;;;;109417;1265;50901;-74
2022/12/20 09:30:32;;;;;;;;;119.67;93.67;1.10;47.50;;;;;;109483;1268;44581;-73
2022/12/20 09:32:59;;;;;;;;;106.67;89.00;0.90;48.00;;;;;;109481;1265;55604;-75
2022/12/20 09:35:25;;;;;;;;;113.33;96.00;0.80;48.70;;;;;;109539;1266;56411;-75
2022/12/20 09:37:52;;;;;;;;;116.33;94.33;0.50;49.50;;;;;;109536;1264;49095;-76
2022/12/20 09:40:21;;;;;;;;;117.33;93.33;0.10;50.80;;;;;;109518;1268;49460;-70
2022/12/20 09:42:49;;;;;;;;;110.00;93.50;0.20;51.90;;;;;;109514;1270;45042;-71
2022/12/20 09:45:24;;;;;;;;;110.67;86.33;0.20;51.40;;;;;;109320;1268;56010;-71
2022/12/20 09:47:51;;;;;;;;;106.00;81.50;0.30;51.50;;;;;;109495;1270;56076;-71
2022/12/20 09:50:19;;;;;;;;;99.25;73.75;0.00;51.20;;;;;;109474;1262;49078;-70
2022/12/20 09:52:59;;;;;;;;;109.33;80.67;0.10;51.30;;;;;;109458;1268;49245;-70
2022/12/20 09:55:25;;;;;;;;;114.00;97.50;0.40;51.50;;;;;;109493;1258;45112;-72
2022/12/20 09:58:20;;;;;;;;;119.67;96.00;0.50;51.60;;;;;;109481;1266;54906;-71
2022/12/20 10:00:49;;;;;;;;;136.00;109.00;0.40;51.80;;;;;;109465;1268;56015;-71
2022/12/20 10:03:24;;;;;;;;;118.00;99.00;0.50;52.60;;;;;;109465;1268;50025;-73
2022/12/20 10:05:57;;;;;;;;;124.67;102.67;0.80;52.50;;;;;;109457;1268;49419;-72
2022/12/20 10:08:43;;;;;;;;;111.67;88.33;0.60;52.10;;;;;;109352;1269;44990;-73
2022/12/20 10:11:19;;;;;;;;;120.00;94.67;0.60;52.10;;;;;;109361;1268;55060;-77
2022/12/20 10:14:04;;;;;;;;;107.75;85.25;0.40;52.10;;;;;;109377;1268;55513;-77
2022/12/20 10:16:44;;;;;;;;;126.00;98.67;0.30;52.50;;;;;;108943;1267;49878;-75
2022/12/20 10:19:43;;;;;;;;;137.67;104.33;0.30;53.10;;;;;;109429;1268;49470;-73
2022/12/20 10:22:20;;;;;;;;;138.00;117.50;0.50;53.60;;;;;;109427;1268;44971;-73
2022/12/20 10:25:15;;;;;;;;;121.00;98.67;0.60;53.00;;;;;;109722;1265;55439;-73
2022/12/20 10:27:44;;;;;;;;;133.67;111.67;0.50;53.10;;;;;;109564;1265;55844;-80
2022/12/20 10:30:23;;;;;;;;;127.50;108.00;0.90;53.00;;;;;;109573;1267;49640;-74
2022/12/20 10:32:52;;;;;;;;;132.50;109.00;1.00;52.20;;;;;;109601;1263;49511;-72
2022/12/20 10:35:49;;;;;;;;;122.67;102.33;1.20;52.00;;;;;;109507;1265;45397;-76
2022/12/20 10:38:17;;;;;;;;;159.50;123.25;1.60;51.90;;;;;;109428;1262;55102;-75
2022/12/20 10:40:47;;;;;;;;;128.00;106.00;1.60;51.80;;;;;;109586;1265;55262;-78
2022/12/20 10:43:21;;;;;;;;;130.50;106.50;1.80;52.10;;;;;;109557;1261;49985;-87
2022/12/20 10:45:59;;;;;;;;;129.00;109.33;1.60;52.20;;;;;;109508;1267;50475;-78
2022/12/20 10:48:34;;;;;;;;;136.00;111.75;1.60;52.50;;;;;;109576;1263;45106;-76
2022/12/20 10:51:12;;;;;;;;;136.00;114.00;1.50;52.60;;;;;;109604;1265;55301;-73
2022/12/20 10:54:01;;;;;;;;;127.67;94.67;1.70;52.50;;;;;;109680;1264;55214;-73
2022/12/20 10:56:33;;;;;;;;;116.00;99.00;1.90;52.70;;;;;;109692;1266;49097;-74
2022/12/20 10:59:22;;;;;;;;;136.50;108.75;2.10;52.90;;;;;;109665;1265;49261;-76
